createdAt,value
2022-12-08T00:01:32.365Z,4.80
2022-12-08T00:04:01.172Z,4.80
2022-12-08T00:06:50.335Z,4.80
2022-12-08T00:09:24.199Z,4.80
2022-12-08T00:11:57.604Z,4.80
2022-12-08T00:14:27.662Z,4.80
2022-12-08T00:16:55.931Z,4.80
2022-12-08T00:19:24.561Z,4.80
2022-12-08T00:21:54.435Z,4.80
2022-12-08T00:24:23.236Z,4.80
2022-12-08T00:26:51.207Z,4.90
2022-12-08T00:29:19.479Z,4.80
2022-12-08T00:31:47.535Z,4.80
2022-12-08T00:34:16.740Z,4.80
2022-12-08T00:36:45.508Z,4.80
2022-12-08T00:39:16.495Z,4.80
2022-12-08T00:42:02.226Z,4.90
2022-12-08T00:44:30.207Z,4.80
2022-12-08T00:46:58.137Z,4.90
2022-12-08T00:49:26.174Z,4.80
2022-12-08T00:51:54.246Z,4.80
2022-12-08T00:54:24.099Z,4.80
2022-12-08T00:56:52.226Z,4.80
2022-12-08T00:59:20.473Z,4.80
2022-12-08T01:01:48.929Z,4.80
2022-12-08T01:04:18.741Z,4.90
2022-12-08T01:06:47.014Z,4.80
2022-12-08T01:09:16.842Z,4.80
2022-12-08T01:11:46.822Z,4.80
2022-12-08T01:14:15.456Z,4.80
2022-12-08T01:16:43.607Z,4.80
2022-12-08T01:19:12.866Z,4.80
2022-12-08T01:21:42.264Z,4.80
2022-12-08T01:24:13.146Z,4.80
2022-12-08T01:26:41.588Z,4.80
2022-12-08T01:29:11.436Z,4.80
2022-12-08T01:31:40.020Z,4.80
2022-12-08T01:34:09.205Z,4.80
2022-12-08T01:36:38.298Z,4.80
2022-12-08T01:39:09.157Z,4.80
2022-12-08T01:41:38.967Z,4.80
2022-12-08T01:44:40.280Z,4.80
2022-12-08T01:47:10.179Z,4.80
2022-12-08T01:49:38.441Z,4.80
2022-12-08T01:52:14.291Z,4.80
2022-12-08T01:54:48.346Z,4.80
2022-12-08T01:57:20.360Z,4.80
2022-12-08T01:59:53.809Z,4.80
2022-12-08T02:02:23.742Z,4.90
2022-12-08T02:04:51.736Z,4.90
2022-12-08T02:07:20.050Z,4.80
2022-12-08T02:09:48.403Z,4.90
2022-12-08T02:12:16.462Z,4.90
2022-12-08T02:14:44.517Z,4.90
2022-12-08T02:17:27.286Z,4.90
2022-12-08T02:20:24.253Z,4.90
2022-12-08T02:23:00.161Z,4.90
2022-12-08T02:25:41.074Z,4.90
2022-12-08T02:28:27.785Z,5.00
2022-12-08T02:31:06.667Z,5.00
2022-12-08T02:34:19.863Z,5.00
2022-12-08T02:36:58.351Z,5.00
2022-12-08T02:39:34.981Z,5.10
2022-12-08T02:42:10.934Z,5.00
2022-12-08T02:44:43.681Z,5.00
2022-12-08T02:47:14.980Z,5.00
2022-12-08T02:49:44.190Z,5.00
2022-12-08T02:52:45.857Z,5.00
2022-12-08T02:55:23.783Z,5.10
2022-12-08T02:58:04.542Z,5.00
2022-12-08T03:00:39.692Z,5.10
2022-12-08T03:03:15.945Z,5.10
2022-12-08T03:05:58.587Z,5.10
2022-12-08T03:08:35.894Z,5.10
2022-12-08T03:11:10.458Z,5.10
2022-12-08T03:13:42.939Z,5.10
2022-12-08T03:16:13.119Z,5.10
2022-12-08T03:18:47.919Z,5.10
2022-12-08T03:21:19.652Z,5.10
2022-12-08T03:23:51.762Z,5.10
2022-12-08T03:26:26.013Z,5.10
2022-12-08T03:28:54.126Z,5.10
2022-12-08T03:31:24.466Z,5.10
2022-12-08T03:33:55.566Z,5.10
2022-12-08T03:36:25.599Z,5.10
2022-12-08T03:38:54.938Z,5.10
2022-12-08T03:41:23.772Z,5.10
2022-12-08T03:43:53.497Z,5.10
2022-12-08T03:48:50.734Z,5.10
2022-12-08T03:51:19.085Z,5.10
2022-12-08T03:53:48.544Z,5.10
2022-12-08T03:56:20.625Z,5.10
2022-12-08T03:58:48.476Z,5.10
2022-12-08T04:01:16.421Z,5.20
2022-12-08T04:03:44.413Z,5.10
2022-12-08T04:06:12.602Z,5.10
2022-12-08T04:08:40.709Z,5.10
2022-12-08T04:11:10.450Z,5.10
2022-12-08T04:13:39.778Z,5.10
2022-12-08T04:16:08.752Z,5.10
2022-12-08T04:18:37.081Z,5.10
2022-12-08T04:21:05.213Z,5.10
2022-12-08T04:23:33.167Z,5.10
2022-12-08T04:26:01.086Z,5.10
2022-12-08T04:28:30.416Z,5.10
2022-12-08T04:30:58.582Z,5.10
2022-12-08T04:33:26.577Z,5.10
2022-12-08T04:35:54.539Z,5.10
2022-12-08T04:38:22.703Z,5.10
2022-12-08T04:40:50.877Z,5.00
2022-12-08T04:43:18.758Z,5.00
2022-12-08T04:45:48.261Z,5.00
2022-12-08T04:48:16.233Z,5.00
2022-12-08T04:50:45.763Z,5.00
2022-12-08T04:53:14.944Z,5.00
2022-12-08T04:55:44.847Z,5.00
2022-12-08T04:58:14.741Z,5.00
2022-12-08T05:00:42.779Z,5.00
2022-12-08T05:03:12.070Z,4.90
2022-12-08T05:05:40.081Z,4.90
2022-12-08T05:08:08.062Z,4.90
2022-12-08T05:10:36.110Z,4.90
2022-12-08T05:13:04.082Z,4.90
2022-12-08T05:15:31.948Z,4.90
2022-12-08T05:17:59.880Z,4.90
2022-12-08T05:20:29.272Z,4.90
2022-12-08T05:22:57.123Z,4.90
2022-12-08T05:25:25.113Z,4.90
2022-12-08T05:27:58.118Z,4.90
2022-12-08T05:30:34.242Z,4.90
2022-12-08T05:33:02.142Z,4.90
2022-12-08T05:35:31.436Z,5.00
2022-12-08T05:37:59.387Z,4.90
2022-12-08T05:40:27.270Z,4.90
2022-12-08T05:42:55.247Z,5.00
2022-12-08T05:45:23.090Z,5.00
2022-12-08T05:47:50.981Z,5.00
2022-12-08T05:50:19.075Z,5.00
2022-12-08T05:52:48.314Z,5.00
2022-12-08T05:55:16.525Z,5.00
2022-12-08T05:57:44.459Z,4.90
2022-12-08T06:00:13.280Z,4.90
2022-12-08T06:02:41.297Z,4.90
2022-12-08T06:05:09.680Z,4.90
2022-12-08T06:07:37.710Z,5.00
2022-12-08T06:10:08.582Z,5.00
2022-12-08T06:12:36.419Z,5.00
2022-12-08T06:15:04.595Z,5.00
2022-12-08T06:17:32.489Z,5.00
2022-12-08T06:20:00.317Z,5.00
2022-12-08T06:22:28.225Z,5.00
2022-12-08T06:24:56.079Z,5.00
2022-12-08T06:27:25.473Z,5.00
2022-12-08T06:29:53.372Z,5.00
2022-12-08T06:32:27.110Z,5.00
2022-12-08T06:34:55.457Z,4.90
2022-12-08T06:37:23.309Z,4.90
2022-12-08T06:39:51.792Z,4.90
2022-12-08T06:42:37.322Z,4.90
2022-12-08T06:45:07.830Z,4.90
2022-12-08T06:47:35.775Z,4.90
2022-12-08T06:50:04.069Z,4.90
2022-12-08T06:52:32.158Z,4.90
2022-12-08T06:55:00.123Z,4.90
2022-12-08T06:57:28.019Z,4.90
2022-12-08T06:59:55.963Z,4.90
2022-12-08T07:02:27.592Z,4.90
2022-12-08T07:04:55.553Z,4.90
2022-12-08T07:07:23.598Z,4.90
2022-12-08T07:09:51.540Z,4.90
2022-12-08T07:12:19.416Z,4.90
2022-12-08T07:14:47.333Z,4.90
2022-12-08T07:17:15.324Z,4.90
2022-12-08T07:19:44.676Z,4.90
2022-12-08T07:22:12.554Z,4.90
2022-12-08T07:24:40.494Z,4.90
2022-12-08T07:27:08.381Z,4.90
2022-12-08T07:29:36.396Z,4.90
2022-12-08T07:32:04.295Z,4.90
2022-12-08T07:34:32.228Z,4.90
2022-12-08T07:37:01.479Z,4.90
2022-12-08T07:39:29.429Z,4.90
2022-12-08T07:41:57.357Z,4.90
2022-12-08T07:44:25.646Z,4.90
2022-12-08T07:46:53.537Z,4.90
2022-12-08T07:49:21.618Z,4.90
2022-12-08T07:51:49.598Z,4.80
2022-12-08T07:54:18.845Z,4.80
2022-12-08T07:56:46.798Z,4.80
2022-12-08T07:59:14.752Z,4.80
2022-12-08T08:01:45.331Z,4.70
2022-12-08T08:04:13.615Z,4.70
2022-12-08T08:06:41.501Z,4.70
2022-12-08T08:09:10.431Z,4.70
2022-12-08T08:11:39.954Z,4.70
2022-12-08T08:14:08.107Z,4.70
2022-12-08T08:16:38.641Z,4.70
2022-12-08T08:19:07.113Z,4.70
2022-12-08T08:21:50.201Z,4.70
2022-12-08T08:24:18.260Z,4.60
2022-12-08T08:26:47.521Z,4.60
2022-12-08T08:29:15.613Z,4.60
2022-12-08T08:31:43.521Z,4.60
2022-12-08T08:34:11.472Z,4.60
2022-12-08T08:36:39.824Z,4.60
2022-12-08T08:39:07.872Z,4.60
2022-12-08T08:41:36.471Z,4.60
2022-12-08T08:44:05.860Z,4.60
2022-12-08T08:46:33.799Z,4.60
2022-12-08T08:49:01.961Z,4.60
2022-12-08T08:51:29.864Z,4.60
2022-12-08T08:53:58.475Z,4.60
2022-12-08T08:56:26.622Z,4.60
2022-12-08T08:58:54.971Z,4.60
2022-12-08T09:01:26.538Z,4.70
2022-12-08T09:03:54.907Z,4.70
2022-12-08T09:06:24.313Z,4.70
2022-12-08T09:08:52.403Z,4.70
2022-12-08T09:11:20.301Z,4.80
2022-12-08T09:13:50.132Z,4.80
2022-12-08T09:16:18.700Z,4.80
2022-12-08T09:18:49.188Z,4.90
2022-12-08T09:21:22.230Z,4.90
2022-12-08T09:23:50.846Z,4.90
2022-12-08T09:26:22.328Z,4.90
2022-12-08T09:28:50.290Z,4.90
2022-12-08T09:31:19.586Z,5.00
2022-12-08T09:33:51.456Z,5.00
2022-12-08T09:36:19.535Z,5.00
2022-12-08T09:38:47.848Z,5.00
2022-12-08T09:41:18.347Z,5.00
2022-12-08T09:43:56.623Z,5.10
2022-12-08T09:46:27.136Z,5.10
2022-12-08T09:49:00.266Z,5.10
2022-12-08T09:51:31.686Z,5.20
2022-12-08T09:54:04.291Z,5.20
2022-12-08T09:56:36.094Z,5.20
2022-12-08T09:59:06.458Z,5.20
2022-12-08T10:01:41.553Z,5.30
2022-12-08T10:04:22.864Z,5.30
2022-12-08T10:07:00.411Z,5.30
2022-12-08T10:09:37.223Z,5.30
2022-12-08T10:12:13.877Z,5.30
2022-12-08T10:14:44.563Z,5.30
2022-12-08T10:17:21.131Z,5.30
2022-12-08T10:19:55.073Z,5.30
2022-12-08T10:22:26.250Z,5.20
2022-12-08T10:24:59.112Z,5.20
2022-12-08T10:27:27.234Z,5.20
2022-12-08T10:29:55.156Z,5.20
2022-12-08T10:32:25.343Z,5.30
2022-12-08T10:35:06.916Z,5.30
2022-12-08T10:37:35.295Z,5.30
2022-12-08T10:40:07.727Z,5.30
2022-12-08T10:42:38.744Z,5.30
2022-12-08T10:45:26.471Z,5.30
2022-12-08T10:48:01.004Z,5.30
2022-12-08T10:50:36.111Z,5.30
2022-12-08T10:53:13.405Z,5.30
2022-12-08T10:55:43.513Z,5.30
2022-12-08T10:58:29.497Z,5.40
2022-12-08T11:00:59.819Z,5.40
2022-12-08T11:03:31.486Z,5.40
2022-12-08T11:06:11.056Z,5.40
2022-12-08T11:08:51.353Z,5.40
2022-12-08T11:11:27.518Z,5.50
2022-12-08T11:13:57.470Z,5.50
2022-12-08T11:16:25.538Z,5.50
2022-12-08T11:18:58.521Z,5.50
2022-12-08T11:21:37.645Z,5.50
2022-12-08T11:24:23.884Z,5.40
2022-12-08T11:26:55.502Z,5.40
2022-12-08T11:29:23.603Z,5.40
2022-12-08T11:31:55.756Z,5.50
2022-12-08T11:34:33.068Z,5.40
2022-12-08T11:37:04.877Z,5.40
2022-12-08T11:39:35.661Z,5.40
2022-12-08T11:42:08.500Z,5.40
2022-12-08T11:44:42.832Z,5.40
2022-12-08T11:47:16.198Z,5.40
2022-12-08T11:52:23.636Z,5.40
2022-12-08T11:54:56.684Z,5.50
2022-12-08T11:57:28.094Z,5.50
2022-12-08T11:59:58.754Z,5.60
2022-12-08T12:02:29.840Z,5.60
2022-12-08T12:05:02.966Z,5.70
2022-12-08T12:07:58.680Z,5.70
2022-12-08T12:10:44.983Z,5.80
2022-12-08T12:13:46.192Z,5.80
2022-12-08T12:16:45.503Z,5.80
2022-12-08T12:19:16.259Z,5.90
2022-12-08T12:21:47.025Z,5.90
2022-12-08T12:24:25.906Z,5.90
2022-12-08T12:26:59.601Z,5.90
2022-12-08T12:29:31.565Z,6.00
2022-12-08T12:32:02.315Z,6.00
2022-12-08T12:34:32.672Z,6.00
2022-12-08T12:37:07.406Z,6.00
2022-12-08T12:39:49.055Z,6.10
2022-12-08T12:42:39.813Z,6.10
2022-12-08T12:45:32.219Z,6.10
2022-12-08T12:48:25.748Z,6.10
2022-12-08T12:50:55.197Z,6.10
2022-12-08T12:53:49.597Z,6.10
2022-12-08T12:56:51.319Z,6.10
2022-12-08T12:59:43.416Z,6.10
2022-12-08T13:02:28.285Z,6.10
2022-12-08T13:05:00.540Z,6.10
2022-12-08T13:07:31.542Z,6.10
2022-12-08T13:10:03.944Z,6.00
2022-12-08T13:12:33.588Z,6.10
2022-12-08T13:15:06.185Z,6.00
2022-12-08T13:17:37.652Z,6.10
2022-12-08T13:20:08.197Z,6.10
2022-12-08T13:23:13.496Z,6.10
2022-12-08T13:26:14.348Z,6.10
2022-12-08T13:29:16.131Z,6.20
2022-12-08T13:31:50.535Z,6.20
2022-12-08T13:34:24.060Z,6.20
2022-12-08T13:37:05.262Z,6.20
2022-12-08T13:39:41.476Z,6.30
2022-12-08T13:42:20.315Z,6.30
2022-12-08T13:45:21.329Z,6.30
2022-12-08T13:48:20.539Z,6.30
2022-12-08T13:52:16.040Z,6.30
2022-12-08T13:54:35.350Z,6.30
2022-12-08T13:59:27.990Z,6.30
2022-12-08T14:02:00.311Z,6.30
2022-12-08T14:04:47.992Z,6.30
2022-12-08T14:07:17.519Z,6.20
2022-12-08T14:09:47.539Z,6.20
2022-12-08T14:12:20.745Z,6.20
2022-12-08T14:15:03.342Z,6.20
2022-12-08T14:17:34.557Z,6.20
2022-12-08T14:20:06.429Z,6.20
2022-12-08T14:22:35.701Z,6.20
2022-12-08T14:25:04.809Z,6.20
2022-12-08T14:27:35.475Z,6.10
2022-12-08T14:30:07.294Z,6.10
2022-12-08T14:32:39.986Z,6.10
2022-12-08T14:35:19.913Z,6.10
2022-12-08T14:37:49.426Z,6.10
2022-12-08T14:40:23.794Z,6.00
2022-12-08T14:42:54.340Z,6.00
2022-12-08T14:45:22.556Z,6.00
2022-12-08T14:47:52.294Z,6.00
2022-12-08T14:50:41.753Z,5.90
2022-12-08T14:53:15.697Z,5.90
2022-12-08T14:55:46.120Z,5.90
2022-12-08T14:58:19.683Z,5.80
2022-12-08T15:00:51.426Z,5.80
2022-12-08T15:03:22.945Z,5.70
2022-12-08T15:05:52.998Z,5.70
2022-12-08T15:08:21.123Z,5.70
2022-12-08T15:11:20.316Z,5.60
2022-12-08T15:13:50.034Z,5.60
2022-12-08T15:16:27.990Z,5.60
2022-12-08T15:19:18.923Z,5.60
2022-12-08T15:21:47.981Z,5.60
2022-12-08T15:24:16.897Z,5.50
2022-12-08T15:26:47.452Z,5.50
2022-12-08T15:29:22.127Z,5.40
2022-12-08T15:31:50.574Z,5.40
2022-12-08T15:34:20.198Z,5.40
2022-12-08T15:36:49.967Z,5.30
2022-12-08T15:39:29.443Z,5.40
2022-12-08T15:41:57.340Z,5.30
2022-12-08T15:44:25.301Z,5.30
2022-12-08T15:46:54.424Z,5.30
2022-12-08T15:49:25.098Z,5.30
2022-12-08T15:52:03.446Z,5.30
2022-12-08T15:54:35.946Z,5.20
2022-12-08T15:57:19.134Z,5.20
2022-12-08T15:59:48.561Z,5.20
2022-12-08T16:02:22.365Z,5.10
2022-12-08T16:07:40.876Z,5.10
2022-12-08T16:10:12.256Z,5.00
2022-12-08T16:15:55.106Z,4.90
2022-12-08T16:18:29.331Z,4.90
2022-12-08T16:21:09.686Z,4.80
2022-12-08T16:23:45.828Z,4.80
2022-12-08T16:26:35.669Z,4.70
2022-12-08T16:29:04.251Z,4.60
2022-12-08T16:31:32.284Z,4.60
2022-12-08T16:34:00.268Z,4.50
2022-12-08T16:36:29.496Z,4.50
2022-12-08T16:38:57.444Z,4.40
2022-12-08T16:41:43.101Z,4.40
2022-12-08T16:44:10.958Z,4.30
2022-12-08T16:46:39.204Z,4.30
2022-12-08T16:49:10.572Z,4.20
2022-12-08T16:51:39.786Z,4.20
2022-12-08T16:54:07.691Z,4.20
2022-12-08T16:56:35.540Z,4.20
2022-12-08T16:59:03.576Z,4.20
2022-12-08T17:01:31.603Z,4.20
2022-12-08T17:04:31.084Z,4.20
2022-12-08T17:06:50.838Z,4.20
2022-12-08T17:09:18.754Z,4.20
2022-12-08T17:11:46.691Z,4.10
2022-12-08T17:14:14.851Z,4.10
2022-12-08T17:16:43.499Z,4.00
2022-12-08T17:19:12.949Z,4.00
2022-12-08T17:21:40.855Z,3.90
2022-12-08T17:24:10.184Z,3.90
2022-12-08T17:26:38.383Z,3.80
2022-12-08T17:29:06.287Z,3.80
2022-12-08T17:31:34.539Z,3.80
2022-12-08T17:34:03.819Z,3.70
2022-12-08T17:36:31.745Z,3.70
2022-12-08T17:39:01.396Z,3.60
2022-12-08T17:41:31.325Z,3.60
2022-12-08T17:43:59.179Z,3.60
2022-12-08T17:46:27.179Z,3.50
2022-12-08T17:48:55.251Z,3.50
2022-12-08T17:51:23.237Z,3.50
2022-12-08T17:53:51.192Z,3.40
2022-12-08T17:56:21.182Z,3.40
2022-12-08T17:58:54.602Z,3.40
2022-12-08T18:01:23.808Z,3.30
2022-12-08T18:03:52.465Z,3.30
2022-12-08T18:06:20.807Z,3.30
2022-12-08T18:08:48.776Z,3.20
2022-12-08T18:11:18.565Z,3.20
2022-12-08T18:13:50.504Z,3.10
2022-12-08T18:16:19.988Z,3.10
2022-12-08T18:18:48.387Z,3.10
2022-12-08T18:21:23.035Z,3.00
2022-12-08T18:23:52.270Z,3.10
2022-12-08T18:26:22.354Z,3.00
2022-12-08T18:28:51.572Z,3.00
2022-12-08T18:31:21.237Z,3.00
2022-12-08T18:33:50.107Z,2.90
2022-12-08T18:36:20.191Z,2.90
2022-12-08T18:38:48.351Z,2.90
2022-12-08T18:41:18.413Z,2.90
2022-12-08T18:43:46.932Z,2.80
2022-12-08T18:46:16.498Z,2.80
2022-12-08T18:48:46.151Z,2.80
2022-12-08T18:51:15.616Z,2.80
2022-12-08T18:53:44.607Z,2.80
2022-12-08T18:56:22.056Z,2.80
2022-12-08T18:58:49.963Z,2.80
2022-12-08T19:01:19.304Z,2.80
2022-12-08T19:04:05.112Z,2.80
2022-12-08T19:06:38.849Z,2.80
2022-12-08T19:09:07.283Z,2.80
2022-12-08T19:11:35.189Z,2.80
2022-12-08T19:14:03.168Z,2.80
2022-12-08T19:16:32.635Z,2.80
2022-12-08T19:19:01.136Z,2.80
2022-12-08T19:21:29.707Z,2.80
2022-12-08T19:23:58.425Z,2.80
2022-12-08T19:26:27.364Z,2.80
2022-12-08T19:28:55.410Z,2.80
2022-12-08T19:31:23.402Z,2.80
2022-12-08T19:33:52.796Z,2.80
2022-12-08T19:36:22.709Z,2.90
2022-12-08T19:39:09.479Z,2.90
2022-12-08T19:41:55.429Z,2.90
2022-12-08T19:44:43.077Z,2.90
2022-12-08T19:47:11.115Z,3.00
2022-12-08T19:49:40.713Z,3.00
2022-12-08T19:52:08.834Z,3.00
2022-12-08T19:54:36.878Z,3.10
2022-12-08T19:57:05.139Z,3.10
2022-12-08T19:59:33.044Z,3.20
2022-12-08T20:02:01.267Z,3.20
2022-12-08T20:04:29.216Z,3.20
2022-12-08T20:06:58.902Z,3.30
2022-12-08T20:09:26.913Z,3.30
2022-12-08T20:11:55.601Z,3.30
2022-12-08T20:14:23.964Z,3.40
2022-12-08T20:16:52.007Z,3.30
2022-12-08T20:19:20.120Z,3.30
2022-12-08T20:21:48.752Z,3.30
2022-12-08T20:24:18.727Z,3.30
2022-12-08T20:26:46.631Z,3.30
2022-12-08T20:29:16.893Z,3.30
2022-12-08T20:31:44.889Z,3.30
2022-12-08T20:34:15.731Z,3.40
2022-12-08T20:36:44.218Z,3.40
2022-12-08T20:39:13.682Z,3.40
2022-12-08T20:41:43.477Z,3.40
2022-12-08T20:44:12.038Z,3.50
2022-12-08T20:46:43.768Z,3.50
2022-12-08T20:49:14.567Z,3.50
2022-12-08T20:51:44.435Z,3.50
2022-12-08T20:54:12.767Z,3.60
2022-12-08T20:56:48.133Z,3.60
2022-12-08T20:59:17.876Z,3.60
2022-12-08T21:01:46.203Z,3.60
2022-12-08T21:04:14.920Z,3.60
2022-12-08T21:06:43.109Z,3.70
2022-12-08T21:09:11.118Z,3.70
2022-12-08T21:11:39.306Z,3.70
2022-12-08T21:14:08.647Z,3.70
2022-12-08T21:16:37.469Z,3.70
2022-12-08T21:19:05.873Z,3.70
2022-12-08T21:21:33.908Z,3.70
2022-12-08T21:24:02.194Z,3.70
2022-12-08T21:26:30.319Z,3.70
2022-12-08T21:28:58.912Z,3.70
2022-12-08T21:31:31.508Z,3.60
2022-12-08T21:33:59.816Z,3.60
2022-12-08T21:36:27.824Z,3.60
2022-12-08T21:38:58.251Z,3.50
2022-12-08T21:41:40.162Z,3.40
2022-12-08T21:44:09.562Z,3.50
2022-12-08T21:46:41.621Z,3.40
2022-12-08T21:49:09.874Z,3.40
2022-12-08T21:51:42.142Z,3.40
2022-12-08T21:54:18.063Z,3.30
2022-12-08T21:56:47.354Z,3.30
2022-12-08T21:59:15.538Z,3.30
2022-12-08T22:01:45.345Z,3.30
2022-12-08T22:04:16.858Z,3.30
2022-12-08T22:06:44.942Z,3.30
2022-12-08T22:09:15.268Z,3.40
2022-12-08T22:11:43.885Z,3.40
2022-12-08T22:14:14.968Z,3.40
2022-12-08T22:16:44.821Z,3.40
2022-12-08T22:19:13.190Z,3.40
2022-12-08T22:21:41.221Z,3.40
2022-12-08T22:24:09.825Z,3.50
2022-12-08T22:26:37.827Z,3.50
2022-12-08T22:29:05.960Z,3.50
2022-12-08T22:31:34.120Z,3.50
2022-12-08T22:34:03.442Z,3.50
2022-12-08T22:36:31.304Z,3.50
2022-12-08T22:38:59.167Z,3.50
2022-12-08T22:41:27.053Z,3.50
2022-12-08T22:43:55.172Z,3.50
2022-12-08T22:46:25.638Z,3.50
2022-12-08T22:48:54.741Z,3.40
2022-12-08T22:51:24.694Z,3.50
2022-12-08T22:53:53.088Z,3.50
2022-12-08T22:56:21.409Z,3.50
2022-12-08T22:58:49.850Z,3.60
2022-12-08T23:01:26.687Z,3.50
2022-12-08T23:03:55.048Z,3.60
2022-12-08T23:06:24.812Z,3.60
2022-12-08T23:08:53.632Z,3.60
2022-12-08T23:11:22.916Z,3.60
2022-12-08T23:13:51.100Z,3.60
2022-12-08T23:16:19.627Z,3.60
2022-12-08T23:18:47.852Z,3.60
2022-12-08T23:21:18.529Z,3.60
2022-12-08T23:23:48.409Z,3.60
2022-12-08T23:26:19.105Z,3.60
2022-12-08T23:28:47.367Z,3.50
2022-12-08T23:31:16.122Z,3.40
2022-12-08T23:33:44.779Z,3.40
2022-12-08T23:36:13.875Z,3.30
2022-12-08T23:38:41.833Z,3.30
2022-12-08T23:41:14.280Z,3.30
2022-12-08T23:43:45.389Z,3.20
2022-12-08T23:46:14.457Z,3.20
2022-12-08T23:48:42.812Z,3.10
2022-12-08T23:51:11.156Z,3.10
2022-12-08T23:53:39.287Z,3.10
2022-12-08T23:56:09.299Z,3.10
2022-12-08T23:58:39.240Z,3.10
